createdAt,value
2018-12-08T00:01:28.884Z,98584.98
2018-12-08T00:03:56.955Z,98593.02
2018-12-08T00:06:25.015Z,98589.73
2018-12-08T00:08:53.136Z,98603.88
2018-12-08T00:11:21.238Z,98602.09
2018-12-08T00:13:49.629Z,98603.11
2018-12-08T00:16:17.855Z,98607.52
2018-12-08T00:18:45.969Z,98609.35
2018-12-08T00:21:14.118Z,98606.59
2018-12-08T00:23:42.315Z,98603.84
2018-12-08T00:26:11.217Z,98611.88
2018-12-08T00:28:39.431Z,98611.76
2018-12-08T00:31:24.698Z,98617.16
2018-12-08T00:33:53.058Z,98621.08
2018-12-08T00:36:21.134Z,98616.01
2018-12-08T00:38:49.207Z,98625.83
2018-12-08T00:41:17.949Z,98625.03
2018-12-08T00:43:46.045Z,98625.34
2018-12-08T00:46:14.291Z,98623.55
2018-12-08T00:48:42.574Z,98632.39
2018-12-08T00:51:10.734Z,98632.20
2018-12-08T00:53:38.879Z,98624.50
2018-12-08T00:56:07.012Z,98624.20
2018-12-08T00:58:35.113Z,98632.57
2018-12-08T01:01:03.212Z,98635.38
2018-12-08T01:03:31.494Z,98636.39
2018-12-08T01:05:59.609Z,98640.44
2018-12-08T01:08:27.748Z,98650.68
2018-12-08T01:10:55.838Z,98651.23
2018-12-08T01:13:24.035Z,98658.20
2018-12-08T01:15:52.241Z,98644.42
2018-12-08T01:18:20.440Z,98645.88
2018-12-08T01:20:48.588Z,98650.25
2018-12-08T01:23:17.381Z,98653.32
2018-12-08T01:25:45.515Z,98656.25
2018-12-08T01:28:13.643Z,98658.52
2018-12-08T01:30:41.736Z,98659.81
2018-12-08T01:33:09.892Z,98661.98
2018-12-08T01:35:38.046Z,98649.09
2018-12-08T01:38:06.245Z,98652.45
2018-12-08T01:40:34.367Z,98655.29
2018-12-08T01:43:03.148Z,98661.42
2018-12-08T01:45:32.627Z,98659.03
2018-12-08T01:48:00.797Z,98666.92
2018-12-08T01:50:29.119Z,98656.61
2018-12-08T01:53:02.483Z,98656.41
2018-12-08T01:55:30.704Z,98661.33
2018-12-08T01:57:58.820Z,98669.72
2018-12-08T02:00:27.177Z,98671.02
2018-12-08T02:02:55.606Z,98675.26
2018-12-08T02:05:23.786Z,98671.91
2018-12-08T02:07:52.507Z,98674.46
2018-12-08T02:10:20.744Z,98675.89
2018-12-08T02:12:48.865Z,98675.21
2018-12-08T02:15:17.017Z,98664.38
2018-12-08T02:17:45.264Z,98654.17
2018-12-08T02:20:13.394Z,98662.19
2018-12-08T02:22:42.452Z,98664.61
2018-12-08T02:25:10.685Z,98664.26
2018-12-08T02:27:38.843Z,98666.38
2018-12-08T02:30:07.636Z,98663.94
2018-12-08T02:32:35.925Z,98672.59
2018-12-08T02:35:04.754Z,98665.36
2018-12-08T02:37:32.960Z,98659.45
2018-12-08T02:40:01.309Z,98651.20
2018-12-08T02:42:29.737Z,98665.77
2018-12-08T02:44:57.859Z,98663.98
2018-12-08T02:47:25.997Z,98667.30
2018-12-08T02:49:54.149Z,98674.13
2018-12-08T02:52:22.305Z,98664.22
2018-12-08T02:54:50.545Z,98652.34
2018-12-08T02:57:18.642Z,98660.44
2018-12-08T02:59:46.759Z,98657.73
2018-12-08T03:02:14.967Z,98657.93
2018-12-08T03:04:43.119Z,98661.38
2018-12-08T03:07:11.316Z,98669.44
2018-12-08T03:09:39.581Z,98674.03
2018-12-08T03:12:07.723Z,98674.41
2018-12-08T03:14:35.937Z,98672.78
2018-12-08T03:17:04.319Z,98667.95
2018-12-08T03:19:32.476Z,98674.53
2018-12-08T03:22:00.565Z,98667.36
2018-12-08T03:24:29.557Z,98678.81
2018-12-08T03:26:57.666Z,98678.96
2018-12-08T03:29:25.834Z,98686.14
2018-12-08T03:31:54.076Z,98700.50
2018-12-08T03:34:22.297Z,98697.91
2018-12-08T03:36:50.485Z,98694.34
2018-12-08T03:39:18.620Z,98694.36
2018-12-08T03:41:46.744Z,98691.73
2018-12-08T03:44:14.789Z,98705.00
2018-12-08T03:46:42.888Z,98710.91
2018-12-08T03:49:10.975Z,98715.00
2018-12-08T03:51:39.102Z,98724.52
2018-12-08T03:54:07.209Z,98729.23
2018-12-08T03:56:35.414Z,98729.08
2018-12-08T03:59:03.634Z,98731.05
2018-12-08T04:01:31.745Z,98719.11
2018-12-08T04:04:00.570Z,98727.15
2018-12-08T04:06:28.772Z,98738.77
2018-12-08T04:08:56.899Z,98734.69
2018-12-08T04:11:25.080Z,98743.67
2018-12-08T04:13:53.925Z,98743.02
2018-12-08T04:16:22.076Z,98751.52
2018-12-08T04:18:50.925Z,98743.19
2018-12-08T04:21:19.045Z,98740.25
2018-12-08T04:23:47.339Z,98740.56
2018-12-08T04:26:15.560Z,98736.80
2018-12-08T04:28:43.641Z,98735.66
2018-12-08T04:31:11.695Z,98742.19
2018-12-08T04:33:40.012Z,98741.32
2018-12-08T04:36:08.207Z,98749.98
2018-12-08T04:38:36.323Z,98748.20
2018-12-08T04:41:04.447Z,98743.16
2018-12-08T04:43:32.587Z,98752.48
2018-12-08T04:46:00.786Z,98746.62
2018-12-08T04:48:28.892Z,98744.99
2018-12-08T04:50:57.073Z,98743.52
2018-12-08T04:53:25.353Z,98732.09
2018-12-08T04:55:53.465Z,98744.67
2018-12-08T04:58:21.583Z,98744.50
2018-12-08T05:00:49.766Z,98746.13
2018-12-08T05:03:17.998Z,98750.05
2018-12-08T05:05:46.144Z,98741.54
2018-12-08T05:08:14.306Z,98747.08
2018-12-08T05:10:42.433Z,98733.82
2018-12-08T05:13:10.581Z,98737.88
2018-12-08T05:15:38.688Z,98739.69
2018-12-08T05:18:06.871Z,98750.80
2018-12-08T05:20:35.029Z,98742.81
2018-12-08T05:23:03.289Z,98751.63
2018-12-08T05:25:31.405Z,98740.83
2018-12-08T05:27:59.553Z,98748.34
2018-12-08T05:30:27.752Z,98736.20
2018-12-08T05:32:55.897Z,98740.73
2018-12-08T05:35:23.958Z,98750.39
2018-12-08T05:37:52.056Z,98750.67
2018-12-08T05:40:20.742Z,98745.44
2018-12-08T05:42:48.851Z,98740.97
2018-12-08T05:45:16.925Z,98739.16
2018-12-08T05:47:45.050Z,98738.81
2018-12-08T05:50:13.760Z,98735.01
2018-12-08T05:52:41.818Z,98734.66
2018-12-08T05:55:09.882Z,98741.83
2018-12-08T05:57:37.930Z,98740.16
2018-12-08T06:00:07.443Z,98747.19
2018-12-08T06:02:35.552Z,98751.92
2018-12-08T06:05:04.263Z,98746.33
2018-12-08T06:07:34.335Z,98740.56
2018-12-08T06:10:02.479Z,98742.05
2018-12-08T06:12:31.299Z,98737.12
2018-12-08T06:15:01.915Z,98734.48
2018-12-08T06:17:34.717Z,98745.95
2018-12-08T06:20:03.387Z,98742.34
2018-12-08T06:22:31.470Z,98752.55
2018-12-08T06:24:59.567Z,98757.31
2018-12-08T06:27:49.439Z,98769.78
2018-12-08T06:30:17.593Z,98758.86
2018-12-08T06:32:45.730Z,98754.66
2018-12-08T06:35:13.956Z,98751.30
2018-12-08T06:37:42.070Z,98760.80
2018-12-08T06:40:11.001Z,98753.16
2018-12-08T06:42:45.418Z,98747.45
2018-12-08T06:45:13.544Z,98745.98
2018-12-08T06:47:41.701Z,98735.35
2018-12-08T06:50:09.856Z,98739.46
2018-12-08T06:52:38.148Z,98747.80
2018-12-08T06:55:06.462Z,98748.11
2018-12-08T06:57:34.603Z,98739.94
2018-12-08T07:00:03.907Z,98736.66
2018-12-08T07:02:32.446Z,98739.77
2018-12-08T07:05:00.490Z,98742.06
2018-12-08T07:07:28.638Z,98746.13
2018-12-08T07:09:56.764Z,98734.83
2018-12-08T07:12:24.830Z,98730.25
2018-12-08T07:14:52.977Z,98737.31
2018-12-08T07:17:21.174Z,98731.93
2018-12-08T07:19:49.248Z,98726.86
2018-12-08T07:22:17.304Z,98734.87
2018-12-08T07:24:45.443Z,98735.83
2018-12-08T07:27:13.864Z,98735.02
2018-12-08T07:29:41.918Z,98741.09
2018-12-08T07:32:09.997Z,98739.10
2018-12-08T07:34:38.062Z,98743.21
2018-12-08T07:37:06.416Z,98738.48
2018-12-08T07:39:34.494Z,98740.45
2018-12-08T07:42:03.048Z,98739.81
2018-12-08T07:44:31.218Z,98736.70
2018-12-08T07:46:59.305Z,98736.08
2018-12-08T07:49:27.865Z,98727.56
2018-12-08T07:51:55.999Z,98729.41
2018-12-08T07:54:24.211Z,98735.31
2018-12-08T07:56:52.927Z,98735.33
2018-12-08T07:59:21.152Z,98734.17
2018-12-08T08:01:49.228Z,98736.95
2018-12-08T08:04:17.360Z,98727.49
2018-12-08T08:06:46.810Z,98721.75
2018-12-08T08:09:15.555Z,98714.38
2018-12-08T08:11:43.836Z,98711.89
2018-12-08T08:14:12.266Z,98703.86
2018-12-08T08:16:40.475Z,98709.38
2018-12-08T08:19:09.172Z,98698.20
2018-12-08T08:21:37.369Z,98696.19
2018-12-08T08:24:05.492Z,98689.13
2018-12-08T08:26:34.274Z,98689.00
2018-12-08T08:29:02.416Z,98682.92
2018-12-08T08:31:30.548Z,98684.75
2018-12-08T08:33:58.900Z,98676.91
2018-12-08T08:36:27.112Z,98683.12
2018-12-08T08:38:55.211Z,98684.10
2018-12-08T08:41:23.340Z,98679.53
2018-12-08T08:43:51.477Z,98687.43
2018-12-08T08:46:19.567Z,98681.23
2018-12-08T08:48:47.820Z,98686.50
2018-12-08T08:51:15.961Z,98689.63
2018-12-08T08:53:44.050Z,98687.49
2018-12-08T08:56:12.169Z,98667.59
2018-12-08T08:58:40.325Z,98685.06
2018-12-08T09:01:08.433Z,98691.31
2018-12-08T09:03:36.494Z,98681.17
2018-12-08T09:06:05.328Z,98676.77
2018-12-08T09:08:33.399Z,98677.73
2018-12-08T09:11:01.552Z,98671.53
2018-12-08T09:13:29.609Z,98674.66
2018-12-08T09:15:57.734Z,98667.45
2018-12-08T09:18:25.886Z,98673.52
2018-12-08T09:20:54.026Z,98667.95
2018-12-08T09:23:23.664Z,98670.40
2018-12-08T09:25:52.689Z,98663.86
2018-12-08T09:28:20.851Z,98658.42
2018-12-08T09:30:48.931Z,98650.71
2018-12-08T09:33:17.036Z,98658.73
2018-12-08T09:35:45.155Z,98665.94
2018-12-08T09:38:15.042Z,98666.75
2018-12-08T09:40:43.195Z,98665.94
2018-12-08T09:43:12.412Z,98665.94
2018-12-08T09:45:41.988Z,98668.38
2018-12-08T09:48:11.084Z,98663.45
2018-12-08T09:50:39.246Z,98661.58
2018-12-08T09:53:14.407Z,98672.34
2018-12-08T09:55:42.551Z,98666.63
2018-12-08T09:58:10.705Z,98665.18
2018-12-08T10:00:39.808Z,98662.42
2018-12-08T10:03:08.643Z,98652.81
2018-12-08T10:05:36.939Z,98642.53
2018-12-08T10:08:05.056Z,98645.34
2018-12-08T10:10:33.264Z,98651.56
2018-12-08T10:13:01.411Z,98648.45
2018-12-08T10:15:29.568Z,98643.53
2018-12-08T10:17:57.740Z,98642.84
2018-12-08T10:20:25.892Z,98637.95
2018-12-08T10:22:54.825Z,98639.72
2018-12-08T10:25:22.954Z,98631.38
2018-12-08T10:27:51.207Z,98625.61
2018-12-08T10:30:19.392Z,98619.52
2018-12-08T10:32:47.851Z,98621.12
2018-12-08T10:35:16.117Z,98617.84
2018-12-08T10:37:44.438Z,98609.35
2018-12-08T10:40:12.648Z,98603.30
2018-12-08T10:42:40.793Z,98607.70
2018-12-08T10:45:09.500Z,98597.23
2018-12-08T10:47:37.859Z,98584.26
2018-12-08T10:50:10.105Z,98598.64
2018-12-08T10:52:38.338Z,98591.70
2018-12-08T10:55:07.421Z,98588.12
2018-12-08T10:57:35.562Z,98595.83
2018-12-08T11:00:06.779Z,98595.88
2018-12-08T11:02:39.927Z,98594.23
2018-12-08T11:05:08.466Z,98591.18
2018-12-08T11:07:36.639Z,98595.68
2018-12-08T11:10:05.868Z,98597.86
2018-12-08T11:12:34.474Z,98606.98
2018-12-08T11:15:02.520Z,98591.11
2018-12-08T11:17:30.554Z,98599.93
2018-12-08T11:19:58.724Z,98586.23
2018-12-08T11:22:26.904Z,98589.73
2018-12-08T11:24:55.003Z,98590.06
2018-12-08T11:27:23.727Z,98586.34
2018-12-08T11:29:51.869Z,98584.27
2018-12-08T11:32:19.970Z,98577.86
2018-12-08T11:34:48.121Z,98563.69
2018-12-08T11:37:16.412Z,98567.30
2018-12-08T11:39:44.590Z,98566.28
2018-12-08T11:42:12.689Z,98557.45
2018-12-08T11:44:41.498Z,98580.69
2018-12-08T11:47:09.598Z,98561.86
2018-12-08T11:49:37.838Z,98558.25
2018-12-08T11:52:05.973Z,98558.58
2018-12-08T11:54:34.130Z,98562.46
2018-12-08T11:57:02.353Z,98560.30
2018-12-08T11:59:30.610Z,98548.75
2018-12-08T12:01:58.699Z,98554.88
2018-12-08T12:04:27.016Z,98544.17
2018-12-08T12:06:55.175Z,98552.21
2018-12-08T12:09:23.712Z,98546.78
2018-12-08T12:11:52.530Z,98549.08
2018-12-08T12:14:57.170Z,98541.24
2018-12-08T12:17:25.488Z,98547.66
2018-12-08T12:19:53.634Z,98533.88
2018-12-08T12:22:22.289Z,98535.61
2018-12-08T12:24:50.369Z,98530.95
2018-12-08T12:27:18.621Z,98529.13
2018-12-08T12:29:46.830Z,98522.95
2018-12-08T12:32:15.223Z,98525.51
2018-12-08T12:34:43.376Z,98522.64
2018-12-08T12:37:11.527Z,98526.55
2018-12-08T12:39:40.296Z,98516.33
2018-12-08T12:42:08.321Z,98523.52
2018-12-08T12:44:36.388Z,98526.01
2018-12-08T12:47:05.486Z,98521.34
2018-12-08T12:49:33.589Z,98515.60
2018-12-08T12:52:01.887Z,98520.85
2018-12-08T12:54:29.961Z,98520.48
2018-12-08T12:56:58.113Z,98531.63
2018-12-08T12:59:26.215Z,98516.59
2018-12-08T13:01:54.785Z,98518.09
2018-12-08T13:04:22.960Z,98517.27
2018-12-08T13:06:50.995Z,98526.39
2018-12-08T13:09:20.148Z,98516.92
2018-12-08T13:11:48.661Z,98521.70
2018-12-08T13:14:16.822Z,98525.25
2018-12-08T13:16:45.047Z,98519.34
2018-12-08T13:19:13.217Z,98521.47
2018-12-08T13:21:42.571Z,98524.55
2018-12-08T13:24:10.815Z,98515.13
2018-12-08T13:26:38.965Z,98518.05
2018-12-08T13:29:07.229Z,98507.66
2018-12-08T13:31:35.350Z,98510.17
2018-12-08T13:34:32.823Z,98509.13
2018-12-08T13:37:01.073Z,98490.58
2018-12-08T13:39:29.204Z,98493.50
2018-12-08T13:41:57.253Z,98490.26
2018-12-08T13:44:35.714Z,98481.95
2018-12-08T13:47:04.084Z,98495.16
2018-12-08T13:49:32.949Z,98487.87
2018-12-08T13:52:01.045Z,98501.56
2018-12-08T13:55:00.087Z,98495.55
2018-12-08T13:57:28.203Z,98495.53
2018-12-08T13:59:57.055Z,98493.82
2018-12-08T14:02:34.612Z,98492.17
2018-12-08T14:05:02.893Z,98491.77
2018-12-08T14:07:31.098Z,98478.36
2018-12-08T14:09:59.174Z,98484.21
2018-12-08T14:12:27.302Z,98486.98
2018-12-08T14:14:55.489Z,98485.82
2018-12-08T14:17:23.585Z,98491.87
2018-12-08T14:19:51.729Z,98499.03
2018-12-08T14:22:24.945Z,98483.95
2018-12-08T14:24:53.117Z,98497.59
2018-12-08T14:27:21.291Z,98498.28
2018-12-08T14:29:49.461Z,98490.91
2018-12-08T14:32:18.165Z,98492.52
2018-12-08T14:34:46.516Z,98492.33
2018-12-08T14:37:14.695Z,98488.50
2018-12-08T14:39:45.959Z,98495.98
2018-12-08T14:42:14.202Z,98489.54
2018-12-08T14:44:42.390Z,98491.27
2018-12-08T14:47:10.706Z,98493.23
2018-12-08T14:49:42.176Z,98489.28
2018-12-08T14:52:10.515Z,98491.24
2018-12-08T14:54:38.696Z,98494.02
2018-12-08T14:57:07.030Z,98489.08
2018-12-08T14:59:36.421Z,98495.91
2018-12-08T15:02:05.225Z,98479.70
2018-12-08T15:04:33.882Z,98487.52
2018-12-08T15:07:03.043Z,98494.34
2018-12-08T15:09:31.310Z,98488.62
2018-12-08T15:11:59.481Z,98496.47
2018-12-08T15:14:27.783Z,98502.92
2018-12-08T15:16:59.965Z,98491.27
2018-12-08T15:19:34.371Z,98494.55
2018-12-08T15:22:08.268Z,98484.05
2018-12-08T15:25:02.319Z,98486.95
2018-12-08T15:27:36.662Z,98483.88
2018-12-08T15:30:09.949Z,98482.78
2018-12-08T15:32:42.275Z,98398.48
2018-12-08T15:35:14.208Z,98471.77
2018-12-08T15:37:46.321Z,98476.20
2018-12-08T15:40:19.149Z,98476.69
2018-12-08T15:42:52.769Z,98481.97
2018-12-08T15:45:24.145Z,98475.32
2018-12-08T15:47:56.946Z,98487.88
2018-12-08T15:50:29.086Z,98495.30
2018-12-08T15:52:57.227Z,98486.52
2018-12-08T15:55:31.069Z,98481.02
2018-12-08T15:58:05.239Z,98484.22
2018-12-08T16:00:33.750Z,98477.93
2018-12-08T16:03:10.473Z,98480.98
2018-12-08T16:05:41.672Z,98485.61
2018-12-08T16:08:09.863Z,98494.97
2018-12-08T16:10:38.258Z,98483.41
2018-12-08T16:13:06.490Z,98487.84
2018-12-08T16:15:36.277Z,98515.00
2018-12-08T16:18:06.464Z,98489.00
2018-12-08T16:20:36.727Z,98489.57
2018-12-08T16:23:09.453Z,98472.80
2018-12-08T16:25:37.643Z,98460.92
2018-12-08T16:28:12.201Z,98459.57
2018-12-08T16:30:40.374Z,98458.61
2018-12-08T16:33:08.826Z,98461.89
2018-12-08T16:35:39.806Z,98458.77
2018-12-08T16:38:07.929Z,98463.25
2018-12-08T16:40:36.628Z,98470.73
2018-12-08T16:43:10.526Z,98474.58
2018-12-08T16:45:42.627Z,98464.05
2018-12-08T16:48:12.499Z,98460.09
2018-12-08T16:53:46.668Z,98453.19
2018-12-08T16:56:16.226Z,98447.44
2018-12-08T16:58:50.913Z,98451.52
2018-12-08T17:01:37.776Z,98445.13
2018-12-08T17:04:09.286Z,98441.77
2018-12-08T17:06:40.526Z,98438.97
2018-12-08T17:09:15.824Z,98443.14
2018-12-08T17:11:47.600Z,98438.03
2018-12-08T17:14:19.503Z,98436.34
2018-12-08T17:19:19.554Z,98431.45
2018-12-08T17:21:51.127Z,98427.50
2018-12-08T17:24:22.736Z,98445.54
2018-12-08T17:29:57.100Z,98429.41
2018-12-08T17:32:28.758Z,98418.49
2018-12-08T17:34:58.815Z,98414.59
2018-12-08T17:37:43.353Z,98411.44
2018-12-08T17:40:13.787Z,98408.22
2018-12-08T17:42:54.359Z,98408.05
2018-12-08T17:45:22.556Z,98404.19
2018-12-08T17:47:50.863Z,98399.83
2018-12-08T17:50:19.072Z,98405.66
2018-12-08T17:52:53.622Z,98387.44
2018-12-08T18:01:30.099Z,98387.91
2018-12-08T18:04:03.570Z,98392.80
2018-12-08T18:06:32.542Z,98383.98
2018-12-08T18:09:02.448Z,98377.81
2018-12-08T18:11:30.722Z,98377.23
2018-12-08T18:13:58.957Z,98370.23
2018-12-08T18:16:27.217Z,98325.22
2018-12-08T18:18:55.317Z,98369.00
2018-12-08T18:21:23.529Z,98373.17
2018-12-08T18:23:51.991Z,98361.87
2018-12-08T18:26:20.127Z,98355.66
2018-12-08T18:28:48.239Z,98362.75
2018-12-08T18:31:28.692Z,98359.88
2018-12-08T18:33:57.055Z,98345.76
2018-12-08T18:36:29.744Z,98345.25
2018-12-08T18:39:05.586Z,98344.09
2018-12-08T18:41:49.177Z,98334.89
2018-12-08T18:44:44.485Z,98341.89
2018-12-08T18:47:12.583Z,98331.33
2018-12-08T18:49:43.973Z,98332.55
2018-12-08T18:52:18.373Z,98283.06
2018-12-08T18:54:50.504Z,98314.38
2018-12-08T18:57:24.935Z,98308.41
2018-12-08T18:59:56.588Z,98304.70
2018-12-08T19:02:28.465Z,98315.36
2018-12-08T19:05:03.421Z,98292.36
2018-12-08T19:07:31.821Z,98298.49
2018-12-08T19:10:00.341Z,98288.70
2018-12-08T19:12:28.717Z,98289.70
2018-12-08T19:14:58.811Z,98276.58
2018-12-08T19:17:27.611Z,98291.16
2018-12-08T19:19:56.249Z,98278.51
2018-12-08T19:22:24.444Z,98265.69
2018-12-08T19:24:52.700Z,98259.80
2018-12-08T19:27:21.588Z,98255.34
2018-12-08T19:29:49.756Z,98258.73
2018-12-08T19:32:21.916Z,98178.83
2018-12-08T19:34:56.404Z,98252.62
2018-12-08T19:40:28.162Z,98243.41
2018-12-08T19:42:56.501Z,98243.83
2018-12-08T19:45:25.449Z,98233.91
2018-12-08T19:48:02.490Z,98220.13
2018-12-08T19:50:30.931Z,98222.40
2018-12-08T19:53:02.620Z,98203.55
2018-12-08T19:55:37.752Z,98206.67
2018-12-08T19:58:13.803Z,98204.03
2018-12-08T20:00:47.510Z,98202.52
2018-12-08T20:03:15.756Z,98191.72
2018-12-08T20:05:47.307Z,98182.23
2018-12-08T20:08:20.994Z,98169.56
2018-12-08T20:10:55.170Z,98170.48
2018-12-08T20:13:27.818Z,98168.70
2018-12-08T20:16:02.142Z,98161.88
2018-12-08T20:18:33.692Z,98160.12
2018-12-08T20:21:05.540Z,98149.31
2018-12-08T20:23:40.048Z,98154.58
2018-12-08T20:26:14.187Z,98147.53
2018-12-08T20:28:45.807Z,98133.33
2018-12-08T20:31:17.876Z,98130.56
2018-12-08T20:33:52.034Z,98123.55
2018-12-08T20:36:25.837Z,98129.67
2018-12-08T20:38:57.105Z,98106.27
2018-12-08T20:41:30.727Z,98105.59
2018-12-08T20:44:00.815Z,98092.77
2018-12-08T20:46:32.049Z,98095.89
2018-12-08T20:49:03.601Z,98084.72
2018-12-08T20:51:45.866Z,98084.67
2018-12-08T20:54:30.457Z,98076.53
2018-12-08T20:56:58.557Z,98055.08
2018-12-08T20:59:38.687Z,98054.39
2018-12-08T21:02:19.184Z,98046.42
2018-12-08T21:04:47.458Z,98035.59
2018-12-08T21:07:15.683Z,98038.38
2018-12-08T21:09:47.162Z,98026.06
2018-12-08T21:12:20.338Z,98024.38
2018-12-08T21:14:48.492Z,98015.86
2018-12-08T21:17:22.930Z,98010.62
2018-12-08T21:19:51.044Z,98001.91
2018-12-08T21:22:19.152Z,97991.44
2018-12-08T21:24:47.265Z,97990.23
2018-12-08T21:27:16.889Z,97979.54
2018-12-08T21:29:46.891Z,97971.14
2018-12-08T21:32:15.163Z,97963.36
2018-12-08T21:34:43.463Z,97952.36
2018-12-08T21:37:11.613Z,97953.67
2018-12-08T21:39:39.792Z,97948.59
2018-12-08T21:42:07.920Z,97941.08
2018-12-08T21:44:36.087Z,97927.78
2018-12-08T21:47:04.418Z,97925.82
2018-12-08T21:49:32.659Z,97921.56
2018-12-08T21:52:00.822Z,97918.07
2018-12-08T21:54:28.944Z,97904.12
2018-12-08T21:56:57.032Z,97896.25
2018-12-08T21:59:25.171Z,97875.61
2018-12-08T22:01:53.465Z,97860.19
2018-12-08T22:04:21.614Z,97856.00
2018-12-08T22:06:49.840Z,97847.95
2018-12-08T22:09:18.005Z,97847.12
2018-12-08T22:11:46.143Z,97835.49
2018-12-08T22:14:14.225Z,97823.94
2018-12-08T22:16:42.472Z,97825.05
2018-12-08T22:19:10.612Z,97814.11
2018-12-08T22:21:38.746Z,97810.31
2018-12-08T22:31:38.095Z,97783.80
2018-12-08T22:34:06.233Z,97772.98
2018-12-08T22:36:34.525Z,97751.03
2018-12-08T22:39:04.074Z,97755.53
2018-12-08T22:41:46.850Z,97742.59
2018-12-08T22:44:21.184Z,97743.21
2018-12-08T22:46:59.292Z,97734.33
2018-12-08T22:49:30.902Z,97720.98
2018-12-08T22:52:02.720Z,97730.27
2018-12-08T22:54:36.305Z,97718.73
2018-12-08T22:57:07.887Z,97718.50
2018-12-08T22:59:39.999Z,97698.64
2018-12-08T23:02:12.127Z,97687.03
2018-12-08T23:04:47.313Z,97685.00
2018-12-08T23:07:18.733Z,97677.56
2018-12-08T23:09:46.805Z,97661.46
2018-12-08T23:12:20.876Z,97660.91
2018-12-08T23:14:50.353Z,97638.28
2018-12-08T23:17:24.863Z,97635.42
2018-12-08T23:19:58.789Z,97630.14
2018-12-08T23:22:30.094Z,97633.88
2018-12-08T23:25:06.750Z,97634.38
2018-12-08T23:27:40.471Z,97622.34
2018-12-08T23:32:36.920Z,97588.92
2018-12-08T23:35:05.193Z,97597.12
2018-12-08T23:37:33.299Z,97599.22
2018-12-08T23:40:01.451Z,97601.48
2018-12-08T23:42:30.211Z,97594.33
2018-12-08T23:44:58.263Z,97589.37
2018-12-08T23:47:27.369Z,97579.53
2018-12-08T23:49:55.514Z,97565.11
2018-12-08T23:52:23.575Z,97556.74
2018-12-08T23:54:57.414Z,97556.08
2018-12-08T23:57:25.544Z,97540.31
2018-12-08T23:59:53.939Z,97538.50
